Terminal Aerodrome Forecast
Issued by NWS Corpus Christi, TX

Current Version | Previous Version | Text Only | Print | Product List | Glossary On
Versions: 1 2 3 4 5 6 7 8 9 10 11 12 13 14 15 16 17 18 19 20 21
000
FTUS44 KCRP 260536
TAFCRP
TAF
KCRP 260536Z 2606/2706 15009KT P6SM FEW025
     FM260900 16008KT 6SM BR BKN008 BKN014
     FM261400 16014G19KT P6SM BKN016
     FM261700 16016G23KT P6SM SCT025
     FM261900 15024G30KT P6SM SCT030
     FM270200 16015G22KT P6SM BKN250=

USA.gov is the U.S. government's official web portal to all federal, state and local government web resources and services.